North Vernon, IN

2:38 PM EDT on May 28, 2015 (GMT -0400)
North Vernon - East | | Change Station
CLOSE
Current Station
Personal Weather Station
Location: North Vernon, IN
Elevation: 761 ft
Nearby Weather Stations

Elev 761 ft 39.01 °N, 85.59 °W | Updated 12 minutes ago

Overcast
Overcast
82.0 °F
Feels Like 86 °F
N
1.7
Wind Variable Wind from SSW

Today
High -- | Low -- °F
--% Chance of Precip.
Yesterday
High -- | Low -- °F
Precip. -- in
6:20 AM 8:59 PM
Waxing Gibbous, 77% visible
Pressure 30.19 in
Visibility 10.0 miles
Clouds Scattered Clouds 3700 ft
Scattered Clouds 4700 ft
Mostly Cloudy 6500 ft
Heat Index 86 °F
Dew Point 70 °F
Humidity 68%
Rainfall 0.00 in
Snow Depth Not available.
UV 6 out of 12
Pollen 8.10 out of 12
Air Quality Not available.
Flu Activity Sporadic
METAR KBAK 281755Z 18003KT 10SM SCT037 SCT047 BKN065 26/15 A3019

More Conditions Fewer Conditions

Pressure 30.19 in
Visibility 10.0 miles
Clouds Scattered Clouds 3700 ft
Scattered Clouds 4700 ft
Mostly Cloudy 6500 ft
Heat Index 86 °F
Dew Point 70 °F
Humidity 68%
Rainfall 0.00 in
Snow Depth Not available.
UV 6 out of 12
Pollen 8.10 out of 12
Air Quality Not available.
Flu Activity Sporadic
METAR KBAK 281755Z 18003KT 10SM SCT037 SCT047 BKN065 26/15 A3019

More Conditions Fewer Conditions

10-Day Weather Forecast

Almanac

Astronomy

May. 28, 2015 Rise Set
Actual Time
Civil Twilight
Nautical Twilight
Astronomical Twilight
Moon
Length of Visible Light
Length of Day
Tomorrow will be .
, % of the Moon is Illuminated

Today's Extremes

State Highs State Lows

Community

WunderPhotos

Upload Photos

1,825,011 photos uploaded!

WunderBlogs® & News

Nearby

Air Quality

  Air Quality AQ Index Pollutant
Not available.

Snow Depth

Station Depth Elevation

Earthquake Activity

City Distance Mag. Time & Date
Minimum magnitude displayed is 2.5.

Coastal Water Temperatures

Place Temperature

Stations

Nearby Weather Stations

Station Location Temp. Windchill Dew Point Humidity Wind Precip. Elev Updated Type